createdAt,value
2019-05-23T00:01:23.041Z,2.30
2019-05-23T00:04:08.028Z,2.30
2019-05-23T00:06:40.823Z,2.60
2019-05-23T00:09:13.986Z,2.47
2019-05-23T00:11:49.712Z,3.00
2019-05-23T00:14:34.325Z,2.70
2019-05-23T00:17:06.630Z,2.67
2019-05-23T00:19:40.629Z,2.70
2019-05-23T00:22:13.467Z,2.43
2019-05-23T00:24:48.111Z,2.10
2019-05-23T00:27:22.499Z,2.60
2019-05-23T00:29:55.007Z,2.20
2019-05-23T00:32:33.265Z,2.13
2019-05-23T00:35:06.760Z,2.30
2019-05-23T00:37:40.675Z,2.40
2019-05-23T00:40:13.392Z,2.40
2019-05-23T00:42:46.231Z,2.40
2019-05-23T00:45:21.245Z,2.40
2019-05-23T00:47:55.225Z,2.47
2019-05-23T00:50:28.267Z,2.13
2019-05-23T00:53:00.785Z,1.82
2019-05-23T00:55:33.253Z,2.40
2019-05-23T00:58:05.903Z,2.30
2019-05-23T01:00:37.770Z,2.17
2019-05-23T01:03:11.462Z,2.35
2019-05-23T01:05:43.943Z,2.00
2019-05-23T01:08:16.964Z,1.92
2019-05-23T01:10:50.114Z,1.80
2019-05-23T01:13:23.536Z,2.12
2019-05-23T01:15:56.143Z,2.00
2019-05-23T01:18:28.919Z,1.80
2019-05-23T01:21:37.765Z,1.80
2019-05-23T01:24:27.756Z,1.92
2019-05-23T01:27:02.046Z,1.95
2019-05-23T01:29:40.045Z,2.05
2019-05-23T01:32:31.323Z,1.80
2019-05-23T01:35:05.178Z,2.17
2019-05-23T01:37:36.635Z,2.50
2019-05-23T01:40:10.872Z,2.45
2019-05-23T01:42:43.937Z,2.60
2019-05-23T01:45:17.758Z,2.50
2019-05-23T01:47:50.519Z,2.40
2019-05-23T01:50:26.694Z,2.55
2019-05-23T01:52:59.643Z,2.50
2019-05-23T01:55:32.633Z,2.60
2019-05-23T01:58:05.674Z,2.12
2019-05-23T02:00:38.384Z,2.40
2019-05-23T02:03:10.786Z,2.30
2019-05-23T02:05:44.120Z,2.40
2019-05-23T02:08:16.892Z,2.75
2019-05-23T02:10:48.997Z,3.80
2019-05-23T02:13:21.988Z,3.30
2019-05-23T02:15:54.743Z,3.30
2019-05-23T02:18:28.432Z,4.03
2019-05-23T02:21:00.966Z,4.50
2019-05-23T02:23:32.593Z,4.60
2019-05-23T02:26:04.888Z,4.30
2019-05-23T02:28:37.474Z,4.27
2019-05-23T02:31:11.586Z,3.75
2019-05-23T02:33:45.398Z,3.77
2019-05-23T02:36:17.741Z,4.00
2019-05-23T02:39:16.094Z,3.30
2019-05-23T02:42:07.256Z,2.80
2019-05-23T02:44:39.624Z,3.10
2019-05-23T02:47:37.097Z,2.53
2019-05-23T02:50:14.721Z,3.17
2019-05-23T02:52:51.685Z,2.90
2019-05-23T02:55:33.354Z,2.50
2019-05-23T02:58:36.562Z,2.60
2019-05-23T03:01:48.923Z,2.10
2019-05-23T03:04:25.115Z,1.65
2019-05-23T03:06:58.872Z,2.27
2019-05-23T03:09:36.323Z,1.90
2019-05-23T03:12:12.175Z,1.90
2019-05-23T03:14:45.843Z,2.20
2019-05-23T03:17:21.174Z,1.87
2019-05-23T03:19:56.867Z,1.90
2019-05-23T03:22:40.358Z,1.57
2019-05-23T03:25:55.348Z,1.67
2019-05-23T03:28:29.958Z,1.50
2019-05-23T03:31:27.054Z,1.70
2019-05-23T03:33:41.016Z,1.70
2019-05-23T03:36:13.337Z,1.80
2019-05-23T03:38:49.195Z,1.80
2019-05-23T03:41:23.169Z,1.70
2019-05-23T03:43:55.421Z,1.92
2019-05-23T03:46:29.618Z,1.70
2019-05-23T03:49:02.328Z,1.60
2019-05-23T03:51:36.769Z,1.70
2019-05-23T03:54:11.245Z,1.60
2019-05-23T03:56:42.704Z,1.50
2019-05-23T03:59:15.808Z,1.50
2019-05-23T04:01:49.597Z,1.75
2019-05-23T04:04:22.290Z,1.60
2019-05-23T04:06:55.055Z,1.80
2019-05-23T04:09:28.021Z,1.62
2019-05-23T04:12:19.057Z,1.50
2019-05-23T04:15:01.618Z,1.50
2019-05-23T04:17:35.984Z,1.80
2019-05-23T04:20:09.034Z,1.67
2019-05-23T04:22:41.944Z,1.80
2019-05-23T04:25:40.688Z,1.47
2019-05-23T04:28:22.266Z,1.70
2019-05-23T04:30:52.719Z,1.30
2019-05-23T04:33:25.235Z,1.65
2019-05-23T04:35:57.452Z,1.67
2019-05-23T04:38:29.143Z,1.57
2019-05-23T04:41:01.682Z,1.22
2019-05-23T04:43:33.835Z,1.32
2019-05-23T04:46:06.107Z,1.10
2019-05-23T04:48:39.104Z,1.45
2019-05-23T04:51:11.004Z,1.50
2019-05-23T04:53:43.207Z,1.40
2019-05-23T04:56:16.139Z,1.20
2019-05-23T04:58:47.777Z,1.40
2019-05-23T05:01:21.722Z,1.52
2019-05-23T05:03:55.295Z,1.20
2019-05-23T05:06:27.359Z,1.27
2019-05-23T05:09:00.584Z,1.20
2019-05-23T05:11:33.439Z,1.77
2019-05-23T05:14:08.475Z,1.20
2019-05-23T05:16:41.187Z,1.17
2019-05-23T05:19:12.744Z,1.32
2019-05-23T05:21:44.717Z,1.00
2019-05-23T05:24:16.406Z,1.25
2019-05-23T05:26:48.765Z,1.20
2019-05-23T05:29:20.857Z,1.15
2019-05-23T05:31:52.454Z,1.10
2019-05-23T05:34:25.260Z,1.20
2019-05-23T05:36:57.885Z,1.15
2019-05-23T05:39:30.333Z,1.10
2019-05-23T05:42:02.600Z,1.15
2019-05-23T05:44:34.412Z,1.22
2019-05-23T05:47:08.613Z,1.55
2019-05-23T05:49:42.323Z,1.30
2019-05-23T05:52:16.412Z,1.30
2019-05-23T05:54:48.424Z,1.10
2019-05-23T05:57:20.002Z,0.98
2019-05-23T05:59:52.517Z,1.70
2019-05-23T06:02:26.344Z,1.40
2019-05-23T06:04:58.097Z,1.30
2019-05-23T06:07:35.625Z,1.20
2019-05-23T06:10:15.508Z,1.22
2019-05-23T06:12:51.137Z,1.07
2019-05-23T06:15:25.422Z,1.20
2019-05-23T06:17:57.201Z,1.27
2019-05-23T06:20:31.462Z,1.10
2019-05-23T06:23:05.731Z,1.30
2019-05-23T06:25:38.128Z,1.20
2019-05-23T06:28:13.760Z,1.02
2019-05-23T06:30:46.608Z,1.15
2019-05-23T06:33:23.652Z,1.45
2019-05-23T06:35:53.166Z,1.00
2019-05-23T06:38:25.005Z,1.15
2019-05-23T06:40:57.261Z,1.25
2019-05-23T06:43:41.929Z,1.45
2019-05-23T06:46:14.999Z,1.70
2019-05-23T06:48:50.034Z,1.20
2019-05-23T06:51:22.292Z,1.37
2019-05-23T06:53:55.503Z,1.40
2019-05-23T06:56:28.414Z,1.40
2019-05-23T06:59:03.239Z,1.42
2019-05-23T07:01:35.880Z,1.45
2019-05-23T07:04:08.774Z,2.95
2019-05-23T07:06:51.125Z,1.22
2019-05-23T07:09:24.418Z,1.30
2019-05-23T07:12:00.817Z,2.42
2019-05-23T07:14:33.896Z,14.33
2019-05-23T07:17:06.841Z,2.45
2019-05-23T07:19:41.579Z,2.25
2019-05-23T07:22:18.030Z,15.63
2019-05-23T07:24:58.224Z,1.98
2019-05-23T07:27:30.587Z,1.07
2019-05-23T07:30:04.371Z,1.30
2019-05-23T07:32:39.368Z,2.33
2019-05-23T07:35:12.036Z,1.95
2019-05-23T07:37:44.709Z,1.40
2019-05-23T07:40:24.085Z,1.25
2019-05-23T07:43:01.664Z,1.07
2019-05-23T07:45:39.831Z,1.60
2019-05-23T07:48:14.119Z,1.70
2019-05-23T07:50:48.293Z,1.87
2019-05-23T07:53:46.261Z,1.60
2019-05-23T07:56:21.023Z,1.05
2019-05-23T07:58:53.638Z,0.90
2019-05-23T08:01:28.460Z,5.20
2019-05-23T08:04:18.031Z,2.47
2019-05-23T08:06:35.869Z,2.10
2019-05-23T08:09:09.926Z,1.77
2019-05-23T08:12:10.516Z,3.30
2019-05-23T08:14:43.203Z,2.75
2019-05-23T08:17:15.608Z,3.60
2019-05-23T08:19:50.061Z,4.70
2019-05-23T08:22:21.562Z,6.83
2019-05-23T08:24:57.290Z,2.20
2019-05-23T08:27:31.426Z,1.98
2019-05-23T08:30:06.241Z,2.00
2019-05-23T08:32:39.079Z,2.70
2019-05-23T08:35:15.680Z,1.98
2019-05-23T08:37:45.153Z,2.67
2019-05-23T08:40:18.893Z,1.47
2019-05-23T08:42:50.488Z,2.83
2019-05-23T08:45:23.930Z,1.98
2019-05-23T08:47:56.424Z,1.40
2019-05-23T08:50:29.373Z,1.57
2019-05-23T08:53:02.083Z,1.42
2019-05-23T08:55:37.362Z,1.20
2019-05-23T08:58:11.711Z,1.70
2019-05-23T09:00:47.641Z,1.22
2019-05-23T09:03:20.230Z,3.65
2019-05-23T09:05:53.036Z,1.20
2019-05-23T09:08:26.320Z,1.10
2019-05-23T09:10:58.436Z,1.80
2019-05-23T09:13:30.998Z,1.70
2019-05-23T09:16:03.480Z,1.40
2019-05-23T09:18:35.890Z,1.50
2019-05-23T09:21:08.277Z,1.82
2019-05-23T09:23:40.701Z,1.30
2019-05-23T09:26:16.087Z,1.62
2019-05-23T09:28:47.694Z,1.65
2019-05-23T09:31:23.009Z,1.20
2019-05-23T09:33:55.608Z,1.30
2019-05-23T09:36:29.756Z,1.12
2019-05-23T09:39:10.366Z,1.50
2019-05-23T09:41:42.037Z,1.40
2019-05-23T09:44:16.930Z,1.20
2019-05-23T09:46:48.913Z,1.45
2019-05-23T09:49:20.569Z,1.40
2019-05-23T09:51:57.341Z,1.40
2019-05-23T09:54:27.941Z,1.60
2019-05-23T09:57:00.600Z,1.25
2019-05-23T09:59:33.174Z,0.80
2019-05-23T10:02:06.527Z,1.00
2019-05-23T10:04:38.881Z,1.20
2019-05-23T10:07:10.926Z,0.90
2019-05-23T10:09:43.414Z,0.93
2019-05-23T10:12:22.711Z,1.00
2019-05-23T10:14:54.251Z,1.25
2019-05-23T10:17:26.597Z,0.82
2019-05-23T10:19:59.125Z,0.68
2019-05-23T10:22:31.581Z,0.80
2019-05-23T10:25:03.835Z,1.10
2019-05-23T10:27:35.511Z,1.00
2019-05-23T10:30:09.977Z,0.93
2019-05-23T10:32:42.255Z,1.00
2019-05-23T10:35:14.505Z,1.10
2019-05-23T10:37:46.941Z,1.15
2019-05-23T10:40:19.361Z,1.25
2019-05-23T10:42:51.791Z,1.30
2019-05-23T10:45:24.046Z,1.07
2019-05-23T10:47:55.855Z,1.17
2019-05-23T10:50:41.955Z,1.37
2019-05-23T10:53:02.358Z,1.20
2019-05-23T10:55:35.078Z,1.10
2019-05-23T10:58:08.145Z,1.30
2019-05-23T11:00:41.353Z,1.10
2019-05-23T11:03:15.200Z,1.17
2019-05-23T11:05:47.942Z,1.22
2019-05-23T11:08:20.511Z,1.20
2019-05-23T11:10:53.069Z,0.90
2019-05-23T11:13:27.609Z,1.98
2019-05-23T11:16:00.065Z,1.25
2019-05-23T11:18:32.132Z,1.30
2019-05-23T11:21:03.716Z,0.95
2019-05-23T11:23:40.868Z,1.07
2019-05-23T11:26:13.621Z,1.30
2019-05-23T11:28:45.271Z,1.12
2019-05-23T11:31:18.293Z,1.30
2019-05-23T11:33:49.770Z,1.60
2019-05-23T11:36:34.563Z,1.20
2019-05-23T11:38:56.062Z,1.22
2019-05-23T11:41:27.674Z,1.02
2019-05-23T11:44:00.178Z,1.05
2019-05-23T11:46:35.810Z,2.08
2019-05-23T11:49:08.959Z,1.02
2019-05-23T11:51:41.075Z,0.88
2019-05-23T11:54:12.649Z,1.12
2019-05-23T11:56:46.616Z,1.00
2019-05-23T11:59:19.160Z,1.10
2019-05-23T12:02:13.554Z,1.95
2019-05-23T12:04:45.970Z,1.32
2019-05-23T12:07:30.489Z,1.95
2019-05-23T12:10:03.015Z,2.17
2019-05-23T12:12:34.977Z,2.85
2019-05-23T12:15:11.492Z,2.37
2019-05-23T12:17:46.195Z,2.80
2019-05-23T12:20:21.548Z,2.60
2019-05-23T12:22:53.214Z,2.62
2019-05-23T12:25:27.489Z,2.75
2019-05-23T12:27:59.654Z,2.80
2019-05-23T12:30:33.902Z,3.02
2019-05-23T12:33:06.238Z,2.70
2019-05-23T12:35:37.923Z,2.37
2019-05-23T12:38:10.033Z,2.27
2019-05-23T12:40:44.736Z,2.50
2019-05-23T12:43:16.996Z,2.40
2019-05-23T12:45:49.475Z,3.05
2019-05-23T12:48:38.432Z,3.20
2019-05-23T12:51:11.377Z,3.25
2019-05-23T12:53:43.845Z,3.20
2019-05-23T12:56:17.425Z,3.50
2019-05-23T12:58:50.358Z,2.72
2019-05-23T13:01:23.002Z,3.10
2019-05-23T13:04:11.145Z,3.98
2019-05-23T13:06:43.281Z,3.47
2019-05-23T13:09:14.858Z,3.58
2019-05-23T13:11:47.105Z,3.72
2019-05-23T13:14:20.317Z,3.30
2019-05-23T13:16:54.235Z,3.17
2019-05-23T13:19:26.896Z,2.40
2019-05-23T13:21:59.088Z,2.30
2019-05-23T13:24:52.045Z,2.37
2019-05-23T13:27:14.410Z,2.60
2019-05-23T13:29:46.479Z,2.42
2019-05-23T13:32:18.694Z,2.22
2019-05-23T13:34:50.707Z,2.25
2019-05-23T13:37:22.912Z,2.30
2019-05-23T13:39:54.751Z,2.20
2019-05-23T13:42:26.243Z,2.35
2019-05-23T13:44:58.771Z,2.42
2019-05-23T13:47:31.125Z,2.17
2019-05-23T13:50:03.378Z,2.50
2019-05-23T13:52:36.232Z,2.40
2019-05-23T13:55:08.259Z,2.15
2019-05-23T13:57:40.517Z,2.27
2019-05-23T14:00:16.619Z,2.12
2019-05-23T14:02:48.039Z,2.20
2019-05-23T14:05:20.863Z,2.40
2019-05-23T14:08:10.037Z,2.50
2019-05-23T14:10:26.896Z,3.00
2019-05-23T14:12:58.935Z,2.58
2019-05-23T14:15:41.085Z,2.33
2019-05-23T14:18:17.253Z,2.00
2019-05-23T14:20:49.403Z,2.17
2019-05-23T14:23:29.060Z,2.20
2019-05-23T14:26:01.849Z,2.25
2019-05-23T14:28:34.305Z,2.55
2019-05-23T14:31:14.853Z,3.45
2019-05-23T14:33:50.277Z,4.22
2019-05-23T14:36:47.651Z,2.92
2019-05-23T14:39:31.096Z,2.60
2019-05-23T14:42:18.288Z,2.83
2019-05-23T14:44:50.922Z,2.27
2019-05-23T14:47:40.628Z,3.20
2019-05-23T14:50:35.101Z,2.50
2019-05-23T14:53:07.400Z,2.90
2019-05-23T14:55:39.911Z,2.47
2019-05-23T14:58:11.798Z,1.98
2019-05-23T15:00:44.745Z,2.62
2019-05-23T15:03:17.775Z,2.30
2019-05-23T15:05:50.086Z,2.40
2019-05-23T15:08:22.012Z,2.20
2019-05-23T15:10:53.739Z,2.10
2019-05-23T15:13:25.670Z,2.20
2019-05-23T15:15:57.923Z,2.15
2019-05-23T15:18:30.039Z,1.92
2019-05-23T15:21:01.915Z,2.17
2019-05-23T15:23:33.401Z,2.00
2019-05-23T15:26:21.764Z,1.65
2019-05-23T15:28:39.893Z,1.50
2019-05-23T15:31:11.698Z,2.30
2019-05-23T15:33:44.060Z,2.35
2019-05-23T15:36:16.177Z,1.82
2019-05-23T15:38:48.763Z,2.10
2019-05-23T15:41:21.021Z,1.95
2019-05-23T15:43:52.648Z,2.17
2019-05-23T15:46:24.854Z,2.30
2019-05-23T15:48:56.921Z,2.25
2019-05-23T15:51:34.542Z,2.65
2019-05-23T15:54:29.183Z,2.10
2019-05-23T15:57:23.528Z,2.00
2019-05-23T16:00:00.022Z,1.65
2019-05-23T16:02:36.095Z,1.70
2019-05-23T16:05:10.089Z,1.90
2019-05-23T16:07:44.999Z,1.70
2019-05-23T16:10:18.206Z,1.57
2019-05-23T16:14:38.260Z,1.80
2019-05-23T16:15:35.544Z,1.98
2019-05-23T16:18:07.927Z,2.02
2019-05-23T16:20:41.400Z,1.90
2019-05-23T16:23:13.868Z,1.70
2019-05-23T16:25:48.717Z,1.90
2019-05-23T16:28:21.275Z,2.30
2019-05-23T16:30:58.373Z,2.33
2019-05-23T16:33:38.898Z,2.72
2019-05-23T16:36:11.632Z,2.58
2019-05-23T16:38:43.396Z,2.85
2019-05-23T16:41:26.118Z,3.05
2019-05-23T16:44:08.899Z,7.08
2019-05-23T16:46:46.122Z,8.18
2019-05-23T16:49:41.663Z,13.83
2019-05-23T16:52:31.592Z,3.80
2019-05-23T16:55:21.774Z,5.33
2019-05-23T16:58:09.038Z,4.10
2019-05-23T17:01:01.300Z,18.65
2019-05-23T17:04:02.727Z,3.92
2019-05-23T17:06:54.493Z,3.45
2019-05-23T17:10:06.924Z,9.40
2019-05-23T17:12:42.856Z,17.73
2019-05-23T17:15:45.604Z,4.83
2019-05-23T17:18:41.921Z,4.05
2019-05-23T17:21:27.383Z,21.20
2019-05-23T17:24:26.531Z,8.10
2019-05-23T17:30:44.617Z,3.92
2019-05-23T17:37:39.295Z,4.42
2019-05-23T17:41:28.523Z,3.45
2019-05-23T17:43:44.669Z,5.60
2019-05-23T17:46:27.484Z,5.20
2019-05-23T17:49:14.583Z,5.72
2019-05-23T17:51:54.860Z,4.47
2019-05-23T17:54:32.971Z,3.15
2019-05-23T18:01:32.196Z,3.50
2019-05-23T19:38:38.825Z,3.00
2019-05-23T19:41:14.423Z,2.70
2019-05-23T19:43:58.265Z,2.80
2019-05-23T19:46:51.361Z,5.83
2019-05-23T19:58:03.900Z,2.27
2019-05-23T20:00:59.406Z,2.70
2019-05-23T20:03:32.797Z,2.40
2019-05-23T20:06:06.787Z,2.80
2019-05-23T20:08:49.771Z,2.55
2019-05-23T20:11:22.405Z,2.83
2019-05-23T20:13:54.837Z,2.90
2019-05-23T20:16:27.297Z,3.00
2019-05-23T20:18:59.977Z,3.30
2019-05-23T20:21:32.215Z,3.00
2019-05-23T20:24:08.146Z,2.42
2019-05-23T20:26:45.176Z,2.67
2019-05-23T20:29:16.673Z,3.70
2019-05-23T20:31:50.023Z,5.95
2019-05-23T20:34:25.413Z,8.13
2019-05-23T20:37:00.261Z,10.18
2019-05-23T20:39:36.451Z,10.15
2019-05-23T20:42:11.597Z,11.93
2019-05-23T20:44:42.398Z,11.48
2019-05-23T20:47:17.592Z,13.38
2019-05-23T20:49:49.901Z,15.32
2019-05-23T20:52:22.212Z,17.17
2019-05-23T20:54:54.192Z,20.85
2019-05-23T20:57:26.900Z,19.23
2019-05-23T20:59:59.433Z,19.35
2019-05-23T21:02:36.110Z,19.45
2019-05-23T21:05:08.846Z,20.27
2019-05-23T21:07:41.325Z,21.68
2019-05-23T21:10:16.313Z,19.37
2019-05-23T21:13:01.992Z,18.65
2019-05-23T21:15:33.431Z,16.55
2019-05-23T21:18:05.767Z,17.70
2019-05-23T21:20:38.212Z,14.50
2019-05-23T21:23:10.264Z,16.75
2019-05-23T21:25:46.607Z,18.65
2019-05-23T21:28:18.128Z,17.35
2019-05-23T21:30:50.421Z,14.87
2019-05-23T21:33:22.538Z,14.80
2019-05-23T21:35:54.614Z,13.55
2019-05-23T21:38:27.294Z,13.08
2019-05-23T21:41:03.250Z,11.20
2019-05-23T21:43:33.924Z,8.03
2019-05-23T21:46:06.146Z,7.00
2019-05-23T21:48:37.650Z,6.50
2019-05-23T21:51:10.194Z,5.67
2019-05-23T21:53:42.620Z,4.90
2019-05-23T21:56:15.031Z,3.55
2019-05-23T21:58:47.058Z,3.15
2019-05-23T22:01:37.860Z,2.87
2019-05-23T22:04:27.799Z,3.15
2019-05-23T22:07:10.888Z,2.83
2019-05-23T22:09:42.562Z,2.67
2019-05-23T22:12:15.607Z,2.98
2019-05-23T22:14:48.268Z,2.80
2019-05-23T22:17:22.429Z,2.87
2019-05-23T22:19:54.582Z,2.92
2019-05-23T22:22:26.080Z,3.37
2019-05-23T22:24:58.543Z,3.02
2019-05-23T22:27:30.923Z,3.00
2019-05-23T22:30:02.522Z,3.27
2019-05-23T22:32:35.093Z,3.17
2019-05-23T22:35:15.025Z,3.50
2019-05-23T22:37:47.498Z,3.25
2019-05-23T22:40:19.488Z,3.27
2019-05-23T22:42:51.244Z,3.55
2019-05-23T22:45:26.222Z,3.58
2019-05-23T22:47:58.621Z,3.52
2019-05-23T22:50:30.795Z,3.52
2019-05-23T22:53:03.313Z,3.52
2019-05-23T22:55:34.785Z,3.60
2019-05-23T22:58:07.575Z,3.47
2019-05-23T23:00:41.584Z,3.77
2019-05-23T23:03:13.092Z,3.50
2019-05-23T23:05:45.516Z,3.60
2019-05-23T23:08:18.281Z,3.67
2019-05-23T23:10:50.336Z,3.40
2019-05-23T23:13:37.729Z,3.60
2019-05-23T23:15:56.666Z,3.55
2019-05-23T23:18:28.768Z,3.60
2019-05-23T23:21:01.141Z,3.52
2019-05-23T23:23:33.552Z,3.40
2019-05-23T23:26:06.102Z,3.67
2019-05-23T23:28:37.958Z,3.60
2019-05-23T23:31:10.087Z,3.60
2019-05-23T23:33:42.486Z,3.60
2019-05-23T23:36:14.055Z,3.47
2019-05-23T23:38:46.169Z,3.50
2019-05-23T23:41:17.761Z,3.20
2019-05-23T23:43:59.286Z,3.30
2019-05-23T23:46:41.629Z,3.00
2019-05-23T23:49:32.057Z,3.27
2019-05-23T23:52:21.623Z,3.47
2019-05-23T23:55:11.199Z,3.05
2019-05-23T23:58:00.803Z,3.25
